createdAt,value
2022-09-26T00:01:43.766Z,97829.91
2022-09-26T00:04:19.216Z,97842.00
2022-09-26T00:06:49.104Z,97847.16
2022-09-26T00:09:18.184Z,97873.19
2022-09-26T00:11:46.459Z,97878.16
2022-09-26T00:14:17.179Z,97889.41
2022-09-26T00:16:47.143Z,97892.06
2022-09-26T00:19:15.686Z,97896.22
2022-09-26T00:21:44.036Z,97897.72
2022-09-26T00:24:12.291Z,97904.34
2022-09-26T00:26:40.151Z,97945.84
2022-09-26T00:29:11.692Z,97940.88
2022-09-26T00:31:41.827Z,97937.88
2022-09-26T00:34:12.329Z,97931.25
2022-09-26T00:36:40.355Z,97945.34
2022-09-26T00:39:10.941Z,97942.19
2022-09-26T00:41:40.931Z,97950.31
2022-09-26T00:44:39.541Z,97972.75
2022-09-26T00:47:15.089Z,97940.56
2022-09-26T00:49:48.879Z,97954.28
2022-09-26T00:52:21.854Z,97970.91
2022-09-26T00:54:53.724Z,97953.47
2022-09-26T00:57:25.427Z,97940.56
2022-09-26T00:59:58.487Z,97964.25
2022-09-26T01:02:28.590Z,97929.94
2022-09-26T01:05:00.485Z,97929.91
2022-09-26T01:07:30.142Z,97923.09
2022-09-26T01:09:59.664Z,97913.66
2022-09-26T01:12:28.968Z,97893.78
2022-09-26T01:14:59.237Z,97891.31
2022-09-26T01:17:27.859Z,97908.69
2022-09-26T01:20:21.354Z,97914.00
2022-09-26T01:23:16.877Z,97865.63
2022-09-26T01:26:13.490Z,97909.53
2022-09-26T01:29:01.125Z,97890.13
2022-09-26T01:31:38.150Z,97906.88
2022-09-26T01:34:14.870Z,97900.94
2022-09-26T01:37:10.960Z,97920.16
2022-09-26T01:39:49.313Z,97913.19
2022-09-26T01:42:27.455Z,97934.06
2022-09-26T01:45:01.834Z,97918.97
2022-09-26T01:47:38.549Z,97957.13
2022-09-26T01:50:15.323Z,97969.75
2022-09-26T01:52:49.320Z,97959.13
2022-09-26T01:55:21.676Z,97960.13
2022-09-26T01:57:57.652Z,97955.81
2022-09-26T02:00:25.698Z,97978.06
2022-09-26T02:02:58.011Z,97973.72
2022-09-26T02:05:33.748Z,97986.16
2022-09-26T02:08:08.183Z,97962.13
2022-09-26T02:10:39.726Z,97969.94
2022-09-26T02:13:13.008Z,98029.34
2022-09-26T02:15:41.570Z,98057.56
2022-09-26T02:18:16.498Z,98047.25
2022-09-26T02:20:49.945Z,98055.41
2022-09-26T02:23:18.502Z,98049.78
2022-09-26T02:25:46.738Z,98032.31
2022-09-26T02:28:16.083Z,98062.22
2022-09-26T02:30:47.026Z,98056.06
2022-09-26T02:33:17.357Z,98038.81
2022-09-26T02:35:58.510Z,98004.63
2022-09-26T02:38:31.292Z,97975.22
2022-09-26T02:41:07.017Z,97970.44
2022-09-26T02:43:44.585Z,97994.28
2022-09-26T02:46:28.933Z,97942.25
2022-09-26T02:49:16.976Z,97965.09
2022-09-26T02:52:01.411Z,97933.09
2022-09-26T02:54:40.975Z,97894.78
2022-09-26T02:57:22.487Z,97874.25
2022-09-26T02:59:59.869Z,97879.84
2022-09-26T03:02:34.060Z,97902.44
2022-09-26T03:05:08.616Z,97908.41
2022-09-26T03:07:42.416Z,97885.84
2022-09-26T03:10:12.325Z,97867.63
2022-09-26T03:12:44.454Z,97874.91
2022-09-26T03:15:15.352Z,97871.41
2022-09-26T03:17:50.089Z,97924.00
2022-09-26T03:20:22.700Z,97885.69
2022-09-26T03:22:54.086Z,97893.13
2022-09-26T03:25:25.699Z,97896.44
2022-09-26T03:27:55.025Z,97887.81
2022-09-26T03:30:24.444Z,97919.03
2022-09-26T03:32:52.619Z,97921.03
2022-09-26T03:35:21.972Z,97906.44
2022-09-26T03:37:50.157Z,97908.56
2022-09-26T03:40:18.634Z,97950.84
2022-09-26T03:42:50.299Z,97958.81
2022-09-26T03:45:20.273Z,97944.09
2022-09-26T03:47:48.243Z,97954.53
2022-09-26T03:50:17.653Z,97979.72
2022-09-26T03:52:50.141Z,97954.69
2022-09-26T03:55:23.876Z,98053.72
2022-09-26T03:57:52.137Z,98069.00
2022-09-26T04:00:20.309Z,98108.84
2022-09-26T04:02:48.413Z,98106.88
2022-09-26T04:05:16.660Z,98084.59
2022-09-26T04:07:47.233Z,98113.34
2022-09-26T04:10:15.817Z,98112.19
2022-09-26T04:12:46.040Z,98110.03
2022-09-26T04:15:17.270Z,98128.44
2022-09-26T04:17:45.370Z,98164.34
2022-09-26T04:20:13.287Z,98184.44
2022-09-26T04:22:42.314Z,98188.56
2022-09-26T04:25:11.901Z,98181.78
2022-09-26T04:27:39.784Z,98153.50
2022-09-26T04:30:09.440Z,98184.44
2022-09-26T04:32:37.633Z,98181.94
2022-09-26T04:35:06.176Z,98182.94
2022-09-26T04:37:37.073Z,98199.03
2022-09-26T04:40:05.873Z,98193.22
2022-09-26T04:42:36.949Z,98193.41
2022-09-26T04:45:05.508Z,98176.97
2022-09-26T04:47:33.512Z,98130.47
2022-09-26T04:50:01.526Z,98114.16
2022-09-26T04:52:29.535Z,98137.59
2022-09-26T04:54:57.799Z,98133.59
2022-09-26T04:57:25.887Z,98128.44
2022-09-26T04:59:55.742Z,98110.00
2022-09-26T05:02:24.286Z,98133.28
2022-09-26T05:04:52.984Z,98078.78
2022-09-26T05:07:23.748Z,98101.88
2022-09-26T05:09:53.274Z,98117.84
2022-09-26T05:12:21.263Z,98143.91
2022-09-26T05:14:54.080Z,98091.25
2022-09-26T05:17:24.371Z,98135.75
2022-09-26T05:19:52.440Z,98132.09
2022-09-26T05:22:25.389Z,98101.38
2022-09-26T05:25:13.540Z,98091.56
2022-09-26T05:27:44.442Z,98100.53
2022-09-26T05:30:13.528Z,98054.41
2022-09-26T05:32:46.294Z,98049.75
2022-09-26T05:35:14.358Z,97987.38
2022-09-26T05:37:42.576Z,98016.22
2022-09-26T05:40:29.590Z,97971.63
2022-09-26T05:43:04.211Z,97995.84
2022-09-26T05:45:32.921Z,98094.56
2022-09-26T05:48:02.763Z,98063.53
2022-09-26T05:50:30.686Z,98089.25
2022-09-26T05:52:59.557Z,98134.44
2022-09-26T05:55:28.089Z,98155.00
2022-09-26T05:57:58.966Z,98189.72
2022-09-26T06:00:27.933Z,98189.72
2022-09-26T06:02:57.263Z,98234.09
2022-09-26T06:05:27.325Z,98315.47
2022-09-26T06:07:55.224Z,98385.81
2022-09-26T06:10:23.898Z,98436.66
2022-09-26T06:12:51.961Z,98506.53
2022-09-26T06:15:19.962Z,98536.97
2022-09-26T06:17:48.203Z,98548.28
2022-09-26T06:20:18.010Z,98572.63
2022-09-26T06:22:47.280Z,98570.56
2022-09-26T06:25:15.421Z,98558.59
2022-09-26T06:27:44.176Z,98614.03
2022-09-26T06:30:12.676Z,98629.69
2022-09-26T06:32:40.901Z,98604.16
2022-09-26T06:35:12.117Z,98571.88
2022-09-26T06:37:42.371Z,98656.50
2022-09-26T06:40:13.933Z,98647.50
2022-09-26T06:42:43.458Z,98634.84
2022-09-26T06:45:12.150Z,98620.03
2022-09-26T06:47:40.111Z,98591.69
2022-09-26T06:50:11.954Z,98613.22
2022-09-26T06:52:40.225Z,98608.22
2022-09-26T06:55:09.533Z,98562.25
2022-09-26T06:57:43.122Z,98579.75
2022-09-26T07:00:13.760Z,98554.94
2022-09-26T07:02:52.235Z,98543.13
2022-09-26T07:05:20.659Z,98547.94
2022-09-26T07:07:49.137Z,98533.47
2022-09-26T07:10:19.983Z,98522.16
2022-09-26T07:12:51.083Z,98555.09
2022-09-26T07:15:21.651Z,98532.66
2022-09-26T07:18:07.907Z,98548.44
2022-09-26T07:20:40.324Z,98561.94
2022-09-26T07:23:11.983Z,98545.28
2022-09-26T07:25:40.658Z,98561.91
2022-09-26T07:28:11.094Z,98590.19
2022-09-26T07:30:39.163Z,98618.88
2022-09-26T07:33:08.018Z,98618.03
2022-09-26T07:35:46.570Z,98614.81
2022-09-26T07:38:27.508Z,98615.13
2022-09-26T07:41:00.915Z,98614.50
2022-09-26T07:44:16.878Z,98682.44
2022-09-26T07:46:36.177Z,98657.97
2022-09-26T07:49:24.371Z,98690.44
2022-09-26T07:51:58.596Z,98670.09
2022-09-26T07:54:37.208Z,98665.44
2022-09-26T07:57:15.900Z,98669.09
2022-09-26T07:59:49.725Z,98680.03
2022-09-26T08:02:23.102Z,98744.06
2022-09-26T08:04:51.683Z,98735.09
2022-09-26T08:07:19.981Z,98716.41
2022-09-26T08:09:48.552Z,98722.22
2022-09-26T08:12:18.263Z,98676.75
2022-09-26T08:14:50.228Z,98682.41
2022-09-26T08:17:18.596Z,98655.88
2022-09-26T08:19:46.867Z,98694.25
2022-09-26T08:22:15.059Z,98680.75
2022-09-26T08:24:44.359Z,98700.38
2022-09-26T08:27:14.192Z,98769.22
2022-09-26T08:29:42.477Z,98768.38
2022-09-26T08:32:11.808Z,98788.22
2022-09-26T08:34:40.997Z,98818.84
2022-09-26T08:37:09.714Z,98882.75
2022-09-26T08:39:37.757Z,98931.38
2022-09-26T08:42:21.548Z,99021.81
2022-09-26T08:45:23.734Z,99115.28
2022-09-26T08:48:00.231Z,99182.72
2022-09-26T08:50:33.320Z,99200.34
2022-09-26T08:53:06.016Z,99351.13
2022-09-26T08:55:37.508Z,99433.94
2022-09-26T08:58:11.268Z,99534.69
2022-09-26T09:00:39.551Z,99656.59
2022-09-26T09:03:22.162Z,99768.81
2022-09-26T09:05:56.522Z,99864.13
2022-09-26T09:08:29.034Z,99957.75
2022-09-26T09:11:04.215Z,99987.72
2022-09-26T09:13:56.489Z,100065.53
2022-09-26T09:16:35.935Z,99895.38
2022-09-26T09:19:15.618Z,99917.25
2022-09-26T09:22:09.857Z,99894.22
2022-09-26T09:24:51.514Z,99987.63
2022-09-26T09:30:25.182Z,100121.28
2022-09-26T09:32:58.976Z,99966.13
2022-09-26T09:35:38.600Z,100005.31
2022-09-26T09:38:09.814Z,99946.03
2022-09-26T09:40:42.954Z,99967.19
2022-09-26T09:43:16.470Z,99840.91
2022-09-26T09:45:49.442Z,99872.00
2022-09-26T09:48:17.755Z,99752.56
2022-09-26T09:51:02.288Z,99707.38
2022-09-26T09:53:47.088Z,99660.19
2022-09-26T09:56:23.761Z,99606.50
2022-09-26T09:59:11.366Z,99609.19
2022-09-26T10:01:43.092Z,99564.13
2022-09-26T10:04:32.882Z,99520.00
2022-09-26T10:07:04.174Z,99591.22
2022-09-26T10:09:40.735Z,99620.41
2022-09-26T10:12:17.251Z,99638.81
2022-09-26T10:14:52.093Z,99686.97
2022-09-26T10:17:22.547Z,99723.88
2022-09-26T10:19:51.880Z,99835.72
2022-09-26T10:22:29.664Z,99886.75
2022-09-26T10:25:03.683Z,99954.09
2022-09-26T10:27:38.524Z,99942.69
2022-09-26T10:30:25.910Z,99947.06
2022-09-26T10:32:57.246Z,99952.03
2022-09-26T10:35:29.599Z,99909.44
2022-09-26T10:38:03.370Z,99953.09
2022-09-26T10:40:47.700Z,99871.88
2022-09-26T10:43:29.016Z,99835.44
2022-09-26T10:46:04.078Z,99822.50
2022-09-26T10:48:48.565Z,99838.78
2022-09-26T10:51:28.251Z,99872.59
2022-09-26T10:54:16.579Z,99908.13
2022-09-26T10:56:48.757Z,99920.28
2022-09-26T10:59:19.180Z,99969.88
2022-09-26T11:01:55.943Z,99971.44
2022-09-26T11:04:50.914Z,99896.84
2022-09-26T11:07:35.009Z,99806.75
2022-09-26T11:10:11.607Z,99783.91
2022-09-26T11:12:42.711Z,99747.84
2022-09-26T11:15:13.905Z,99671.94
2022-09-26T11:17:44.930Z,99590.84
2022-09-26T11:20:28.989Z,99533.31
2022-09-26T11:23:27.572Z,99496.81
2022-09-26T11:26:16.158Z,99449.66
2022-09-26T11:28:48.283Z,99434.94
2022-09-26T11:31:24.211Z,99450.81
2022-09-26T11:33:52.407Z,99482.78
2022-09-26T11:36:39.823Z,99467.38
2022-09-26T11:39:27.965Z,99481.09
2022-09-26T11:42:14.219Z,99458.06
2022-09-26T11:44:54.581Z,99470.31
2022-09-26T11:48:08.245Z,99523.69
2022-09-26T11:51:08.745Z,99588.03
2022-09-26T11:53:54.343Z,99571.53
2022-09-26T11:56:42.572Z,99588.16
2022-09-26T11:59:29.140Z,99669.41
2022-09-26T12:02:17.623Z,99655.38
2022-09-26T12:05:04.498Z,99697.91
2022-09-26T12:07:46.450Z,99694.31
2022-09-26T12:10:27.664Z,99746.38
2022-09-26T12:13:12.198Z,99748.63
2022-09-26T12:15:51.557Z,99683.53
2022-09-26T12:18:27.158Z,99677.44
2022-09-26T12:21:15.875Z,99740.13
2022-09-26T12:24:03.014Z,99884.56
2022-09-26T12:26:51.325Z,100077.91
2022-09-26T12:29:39.271Z,100164.09
2022-09-26T12:32:32.952Z,100225.22
2022-09-26T12:35:31.918Z,100359.91
2022-09-26T12:38:37.702Z,100357.41
2022-09-26T12:41:18.702Z,100414.59
2022-09-26T12:44:07.826Z,100419.66
2022-09-26T12:47:00.321Z,100382.47
2022-09-26T12:50:03.720Z,100275.34
2022-09-26T12:52:54.373Z,100290.13
2022-09-26T12:55:33.822Z,100179.59
2022-09-26T12:58:22.459Z,100161.00
2022-09-26T13:01:01.483Z,100050.38
2022-09-26T13:03:56.499Z,100012.81
2022-09-26T13:07:02.173Z,99892.28
2022-09-26T13:09:52.108Z,99881.00
2022-09-26T13:12:40.529Z,99859.34
2022-09-26T13:15:26.249Z,99874.97
2022-09-26T13:18:02.635Z,99901.94
2022-09-26T13:20:36.201Z,99903.88
2022-09-26T13:23:09.864Z,100017.84
2022-09-26T13:25:52.163Z,99979.59
2022-09-26T13:28:24.752Z,99930.69
2022-09-26T13:31:02.579Z,99928.31
2022-09-26T13:33:36.294Z,99974.56
2022-09-26T13:36:06.225Z,99948.56
2022-09-26T13:38:47.349Z,99934.78
2022-09-26T13:41:34.010Z,99951.47
2022-09-26T13:44:13.407Z,99987.38
2022-09-26T13:46:54.219Z,100044.78
2022-09-26T13:49:45.285Z,100044.53
2022-09-26T13:52:25.504Z,100072.72
2022-09-26T13:55:10.076Z,100121.03
2022-09-26T13:57:51.912Z,100130.34
2022-09-26T14:00:49.029Z,100118.19
2022-09-26T14:03:38.612Z,100111.44
2022-09-26T14:06:33.857Z,100138.31
2022-09-26T14:09:25.451Z,100120.72
2022-09-26T14:12:21.988Z,100084.84
2022-09-26T14:15:18.229Z,99998.72
2022-09-26T14:18:18.984Z,99976.63
2022-09-26T14:21:16.214Z,99943.81
2022-09-26T14:23:46.074Z,99983.94
2022-09-26T14:26:19.864Z,99950.34
2022-09-26T14:28:53.839Z,99881.09
2022-09-26T14:31:43.133Z,99868.72
2022-09-26T14:34:23.479Z,99883.56
2022-09-26T14:36:54.076Z,99867.97
2022-09-26T14:39:36.325Z,99844.66
2022-09-26T14:42:18.280Z,99874.81
2022-09-26T14:44:54.654Z,99851.53
2022-09-26T14:47:26.416Z,99860.47
2022-09-26T14:50:01.138Z,99853.91
2022-09-26T14:52:30.932Z,99849.56
2022-09-26T14:55:02.299Z,99892.69
2022-09-26T14:57:33.640Z,99869.25
2022-09-26T15:00:03.558Z,99860.78
2022-09-26T15:02:41.812Z,99812.19
2022-09-26T15:05:22.266Z,99803.78
2022-09-26T15:07:52.900Z,99751.41
2022-09-26T15:10:38.680Z,99753.19
2022-09-26T15:13:21.001Z,99741.88
2022-09-26T15:16:08.253Z,99722.63
2022-09-26T15:18:41.577Z,99692.25
2022-09-26T15:21:32.959Z,99684.22
2022-09-26T15:24:04.366Z,99672.94
2022-09-26T15:26:35.920Z,99673.91
2022-09-26T15:29:10.081Z,99642.47
2022-09-26T15:31:40.669Z,99585.81
2022-09-26T15:34:17.062Z,99557.72
2022-09-26T15:36:48.686Z,99508.03
2022-09-26T15:39:38.227Z,99509.28
2022-09-26T15:42:38.352Z,99481.31
2022-09-26T15:45:26.026Z,99437.91
2022-09-26T15:47:55.507Z,99409.69
2022-09-26T15:50:29.311Z,99417.09
2022-09-26T15:53:03.151Z,99371.72
2022-09-26T15:55:36.222Z,99344.91
2022-09-26T15:58:07.222Z,99332.56
2022-09-26T16:00:38.305Z,99325.59
2022-09-26T16:03:34.478Z,99288.78
2022-09-26T16:06:09.266Z,99267.44
2022-09-26T16:08:43.095Z,99242.03
2022-09-26T16:11:11.656Z,99224.34
2022-09-26T16:13:46.363Z,99249.63
2022-09-26T16:16:18.003Z,99230.72
2022-09-26T16:18:53.775Z,99200.81
2022-09-26T16:21:27.121Z,99219.22
2022-09-26T16:23:56.989Z,99188.63
2022-09-26T16:26:31.438Z,99189.00
2022-09-26T16:29:01.016Z,99209.72
2022-09-26T16:31:39.505Z,99164.25
2022-09-26T16:34:21.605Z,99150.69
2022-09-26T16:36:52.346Z,99147.34
2022-09-26T16:39:24.345Z,99230.41
2022-09-26T16:42:03.390Z,99189.00
2022-09-26T16:44:36.764Z,99168.59
2022-09-26T16:47:09.543Z,99156.63
2022-09-26T16:49:45.742Z,99118.19
2022-09-26T16:52:29.718Z,99118.53
2022-09-26T16:54:59.948Z,99090.47
2022-09-26T16:57:31.577Z,99090.63
2022-09-26T17:00:19.843Z,99065.09
2022-09-26T17:02:48.577Z,99047.69
2022-09-26T17:05:19.716Z,99077.81
2022-09-26T17:07:50.749Z,99065.28
2022-09-26T17:10:22.670Z,99066.44
2022-09-26T17:12:53.234Z,99071.13
2022-09-26T17:15:27.447Z,99033.22
2022-09-26T17:18:07.355Z,99021.88
2022-09-26T17:20:35.899Z,98974.31
2022-09-26T17:23:22.227Z,98982.41
2022-09-26T17:25:57.582Z,98974.72
2022-09-26T17:28:31.491Z,98999.06
2022-09-26T17:31:06.622Z,98975.97
2022-09-26T17:33:39.726Z,98954.66
2022-09-26T17:36:11.069Z,98957.84
2022-09-26T17:38:42.288Z,98937.50
2022-09-26T17:41:12.738Z,98940.34
2022-09-26T17:43:41.113Z,98909.78
2022-09-26T17:46:15.592Z,98899.06
2022-09-26T17:48:45.232Z,98924.03
2022-09-26T17:51:14.841Z,98918.69
2022-09-26T17:53:50.417Z,98930.50
2022-09-26T17:56:19.377Z,98930.69
2022-09-26T17:58:49.050Z,98919.38
2022-09-26T18:01:24.114Z,98913.38
2022-09-26T18:03:56.965Z,98909.19
2022-09-26T18:06:33.257Z,98903.84
2022-09-26T18:09:10.007Z,98899.38
2022-09-26T18:11:39.295Z,98885.66
2022-09-26T18:14:08.755Z,98893.81
2022-09-26T18:16:37.072Z,98868.91
2022-09-26T18:19:07.818Z,98885.66
2022-09-26T18:21:36.492Z,98869.09
2022-09-26T18:24:09.625Z,98878.00
2022-09-26T18:26:42.123Z,98836.59
2022-09-26T18:29:15.400Z,98884.00
2022-09-26T18:31:46.746Z,98835.59
2022-09-26T18:34:19.153Z,98860.28
2022-09-26T18:36:52.050Z,98835.63
2022-09-26T18:39:21.788Z,98828.28
2022-09-26T18:41:51.991Z,98833.13
2022-09-26T18:44:20.830Z,98804.94
2022-09-26T18:46:49.267Z,98803.66
2022-09-26T18:49:18.083Z,98796.25
2022-09-26T18:51:46.849Z,98791.78
2022-09-26T18:54:17.072Z,98784.47
2022-09-26T18:57:04.898Z,98745.31
2022-09-26T18:59:32.905Z,98740.50
2022-09-26T19:02:02.663Z,98710.00
2022-09-26T19:04:31.959Z,98678.47
2022-09-26T19:07:03.238Z,98654.31
2022-09-26T19:09:34.841Z,98681.00
2022-09-26T19:12:05.958Z,98683.22
2022-09-26T19:14:34.063Z,98646.88
2022-09-26T19:17:03.859Z,98660.69
2022-09-26T19:19:33.346Z,98657.53
2022-09-26T19:22:08.385Z,98620.91
2022-09-26T19:24:39.820Z,98561.63
2022-09-26T19:27:16.324Z,98577.78
2022-09-26T19:29:47.573Z,98565.72
2022-09-26T19:32:20.764Z,98542.53
2022-09-26T19:34:53.731Z,98543.53
2022-09-26T19:37:22.349Z,98501.28
2022-09-26T19:39:50.448Z,98480.47
2022-09-26T19:42:22.507Z,98448.34
2022-09-26T19:44:51.416Z,98467.38
2022-09-26T19:47:24.761Z,98428.59
2022-09-26T19:49:53.702Z,98429.25
2022-09-26T19:52:23.105Z,98402.84
2022-09-26T19:54:51.211Z,98391.22
2022-09-26T19:57:22.359Z,98363.78
2022-09-26T19:59:51.648Z,98344.19
2022-09-26T20:02:21.743Z,98331.38
2022-09-26T20:04:50.130Z,98289.16
2022-09-26T20:07:20.020Z,98261.22
2022-09-26T20:09:48.493Z,98311.28
2022-09-26T20:12:17.150Z,98306.63
2022-09-26T20:14:46.672Z,98286.19
2022-09-26T20:17:24.338Z,98295.97
2022-09-26T20:19:58.932Z,98281.03
2022-09-26T20:22:27.563Z,98235.50
2022-09-26T20:24:57.551Z,98185.00
2022-09-26T20:27:29.863Z,98185.16
2022-09-26T20:30:19.568Z,98135.34
2022-09-26T20:32:48.736Z,98141.03
2022-09-26T20:35:20.906Z,98099.84
2022-09-26T20:37:49.071Z,98167.06
2022-09-26T20:40:24.484Z,98169.72
2022-09-26T20:43:01.184Z,98161.28
2022-09-26T20:45:37.244Z,98153.31
2022-09-26T20:48:08.934Z,98168.06
2022-09-26T20:50:39.900Z,98165.25
2022-09-26T20:53:17.323Z,98169.72
2022-09-26T20:55:48.054Z,98164.59
2022-09-26T20:58:18.754Z,98163.59
2022-09-26T21:00:53.332Z,98158.63
2022-09-26T21:03:26.566Z,98164.59
2022-09-26T21:05:55.883Z,98177.53
2022-09-26T21:08:28.873Z,98171.88
2022-09-26T21:10:59.697Z,98166.91
2022-09-26T21:13:30.648Z,98173.22
2022-09-26T21:16:04.684Z,98177.88
2022-09-26T21:18:34.817Z,98190.47
2022-09-26T21:21:07.175Z,98185.34
2022-09-26T21:23:45.284Z,98179.84
2022-09-26T21:26:21.823Z,98236.66
2022-09-26T21:28:53.892Z,98226.34
2022-09-26T21:31:26.598Z,98224.19
2022-09-26T21:33:57.664Z,98227.50
2022-09-26T21:36:34.724Z,98240.97
2022-09-26T21:39:05.956Z,98239.16
2022-09-26T21:41:37.376Z,98228.69
2022-09-26T21:44:12.518Z,98218.03
2022-09-26T21:46:43.120Z,98215.72
2022-09-26T21:49:11.310Z,98198.13
2022-09-26T21:51:42.648Z,98201.94
2022-09-26T21:54:20.447Z,98161.91
2022-09-26T21:56:53.228Z,98173.72
2022-09-26T21:59:25.294Z,98156.13
2022-09-26T22:01:56.004Z,98107.13
2022-09-26T22:04:25.404Z,98145.34
2022-09-26T22:06:54.805Z,98098.19
2022-09-26T22:09:24.456Z,98118.41
2022-09-26T22:11:54.107Z,98145.00
2022-09-26T22:14:23.016Z,98126.25
2022-09-26T22:16:52.733Z,98119.41
2022-09-26T22:19:23.575Z,98097.69
2022-09-26T22:21:52.732Z,98086.56
2022-09-26T22:24:23.824Z,98069.66
2022-09-26T22:26:53.357Z,98030.16
2022-09-26T22:29:24.043Z,98050.41
2022-09-26T22:31:51.897Z,97993.66
2022-09-26T22:34:23.171Z,97998.97
2022-09-26T22:36:53.990Z,97970.13
2022-09-26T22:39:23.532Z,98001.16
2022-09-26T22:41:52.844Z,98022.88
2022-09-26T22:44:22.296Z,97967.81
2022-09-26T22:46:51.393Z,98004.94
2022-09-26T22:49:22.343Z,97936.94
2022-09-26T22:51:51.507Z,97988.69
2022-09-26T22:54:21.447Z,97996.97
2022-09-26T22:56:51.967Z,97988.53
2022-09-26T22:59:23.677Z,97981.72
2022-09-26T23:01:52.651Z,97988.03
2022-09-26T23:04:45.282Z,98032.31
2022-09-26T23:07:16.328Z,98045.25
2022-09-26T23:09:46.624Z,98078.28
2022-09-26T23:12:18.979Z,98104.47
2022-09-26T23:14:47.022Z,98117.75
2022-09-26T23:17:16.293Z,98112.63
2022-09-26T23:19:48.632Z,98112.78
2022-09-26T23:22:19.033Z,98086.06
2022-09-26T23:24:47.501Z,98082.91
2022-09-26T23:27:16.735Z,98116.44
2022-09-26T23:29:46.767Z,98148.97
2022-09-26T23:32:19.645Z,98196.63
2022-09-26T23:34:50.260Z,98204.09
2022-09-26T23:37:20.176Z,98206.06
2022-09-26T23:39:49.399Z,98230.31
2022-09-26T23:42:18.726Z,98225.00
2022-09-26T23:44:49.245Z,98247.59
2022-09-26T23:47:19.398Z,98257.91
2022-09-26T23:49:51.386Z,98267.38
2022-09-26T23:52:21.528Z,98231.13
2022-09-26T23:54:50.565Z,98239.09
2022-09-26T23:57:20.207Z,98227.97
2022-09-26T23:59:49.580Z,98307.09
